Форум клана ЧПУшников

Информация о пользователе

Привет, Гость! Войдите или зарегистрируйтесь.


Вы здесь » Форум клана ЧПУшников » Лазерные станки


Лазерные станки

Тем 321 страница 400 из 444

Тема Ответов Просмотров Последнее сообщение
8 236 14-03-2016 16:51:53  Расулыч
21 6810 13-03-2016 19:24:18  barabaschka09
7 372 10-03-2016 20:36:59  chirik
5 717 07-03-2016 20:32:32  Flint2015
19 1697 04-03-2016 17:27:39  Airside
4 191 29-02-2016 22:43:44  nikson
5 171 27-02-2016 08:50:26  Flint2015
328 Тестирование размера реза  Виктор Краски
9 471 26-02-2016 16:55:55  daguss
329 кривая резка  Восходник
17 486 26-02-2016 00:06:30  semerochka
80 5655 22-02-2016 20:51:36  Kinetic
17 892 22-02-2016 12:02:26  Kinetic
30 989 19-02-2016 21:54:44  Rudiarius
5 554 14-02-2016 15:24:59  gabber
7 370 14-02-2016 12:43:54  Zippo
12 378 12-02-2016 17:15:38  Yaroslavl
2 201 12-02-2016 10:23:44  Администратор
22 869 07-02-2016 15:27:40  Imobile
6 319 28-01-2016 17:09:21  StarPOM
25 923 26-01-2016 15:23:58  Zippo
16 657 15-01-2016 04:57:58  Tauhuh
341 Аквапомпа  markaru
7 305 12-01-2016 18:35:57  dm6
3 231 07-01-2016 00:45:42  okruk
4 235 05-01-2016 10:25:43  markaru
6 476 04-01-2016 21:25:36  SDB
345 Нужна помощь специалистов!  Мастер на все руки
30 1234 02-01-2016 20:05:38  racon75
7 202 24-12-2015 12:08:34  lexus80
22 2206 21-12-2015 14:22:31  Kuz
14 361 14-12-2015 15:59:50  YuSTas
8 328 12-12-2015 20:20:10  Shamankiller
15 565 12-12-2015 18:02:39  racon75
7 342 12-12-2015 01:11:17  markaru
38 902 08-12-2015 23:46:50  asor
35 892 08-12-2015 18:35:57  dm6
8 357 07-12-2015 21:25:28  Dimon
25 905 04-12-2015 21:36:10  Silmaril
356 Лазерный станок Kamach II 1280 AS  радион рашитович
4 231 04-12-2015 20:36:20  Airside
4 295 04-12-2015 10:56:16  Drakonstar
9 616 29-11-2015 02:45:00  Лазорез
38 795 27-11-2015 18:12:36  ЫХ-000
41 1346 27-11-2015 12:34:06  Slym
44 1832 22-11-2015 11:50:31  _king_
362 mpc6525 - завис  Dr_dober
2 241 16-11-2015 12:54:39  Dr_dober
5 204 10-11-2015 22:25:27  Прокоп
30 2162 09-11-2015 16:17:15  bort747
1 209 07-11-2015 14:48:03  MobileMan
366 Гравивовка на iPhone  Максим1975
9 592 28-10-2015 12:02:57  Восходник
44 1036 25-10-2015 16:54:39  tok17
3 241 25-10-2015 11:20:20  Фёдор Соколов
12 635 24-10-2015 11:53:29  yri71
21 1756 21-10-2015 23:59:06  dmitrymi
10 690 20-10-2015 16:04:37  YuSTas
2 94 20-10-2015 15:35:36  Kuz
6 231 15-10-2015 09:36:29  Валерия-206
3 192 13-10-2015 11:20:10  Kuz
1 149 06-10-2015 16:34:03  coolmail
29 996 30-09-2015 12:07:02  olejah
9 397 28-09-2015 04:25:16  BlackOx
378 Расфокусировка  Прокоп
8 309 24-09-2015 20:30:02  Прокоп
14 374 24-09-2015 20:07:38  Lord
6 232 23-09-2015 08:43:57  Airside
3 125 22-09-2015 17:06:12  PalSecam
3 144 22-09-2015 14:56:27  PalSecam
2 171 16-09-2015 22:31:09  Артем-70
35 497 04-09-2015 12:04:29  ecto
5 248 02-09-2015 16:35:06  Halkin
2 383 01-09-2015 22:56:15  Soundlab 77
387 Станок для резки  владимир1070
7 308 27-08-2015 01:47:38  tok17
3 430 05-08-2015 09:46:16  Zeech79
25 772 31-07-2015 11:57:43  Orly
5 393 19-07-2015 11:20:49  Imobile
11 363 15-07-2015 22:09:31  igorzh
5 445 04-07-2015 14:13:00  Fototek
8 2260 25-06-2015 17:57:47  Nokoone
394 Трубка Reci Z8  Zeech79
7 397 25-06-2015 17:53:05  Kuz
1 172 25-06-2015 04:34:38  ThunderLaser_Nolan
2 180 23-06-2015 17:46:06  Halkin
6 207 19-06-2015 13:27:58  Flint2015
8 990 19-06-2015 10:30:36  shraik
24 1270 15-06-2015 12:51:19  AndreyTK
36 1015 03-06-2015 10:13:25  Exivis

Вы здесь » Форум клана ЧПУшников » Лазерные станки